createdAt,value
2023-03-19T00:01:13.979Z,45.70
2023-03-19T00:03:43.109Z,44.53
2023-03-19T00:06:12.361Z,44.80
2023-03-19T00:08:41.383Z,41.65
2023-03-19T00:11:11.861Z,40.42
2023-03-19T00:13:41.091Z,44.33
2023-03-19T00:16:10.409Z,39.25
2023-03-19T00:18:39.418Z,42.25
2023-03-19T00:21:08.378Z,41.63
2023-03-19T00:23:37.886Z,41.42
2023-03-19T00:26:07.852Z,40.88
2023-03-19T00:28:38.404Z,40.63
2023-03-19T00:31:16.698Z,43.67
2023-03-19T00:33:45.747Z,40.90
2023-03-19T00:36:15.157Z,50.58
2023-03-19T00:38:44.996Z,49.38
2023-03-19T00:41:14.922Z,50.45
2023-03-19T00:43:43.861Z,38.15
2023-03-19T00:46:12.900Z,42.83
2023-03-19T00:48:41.854Z,45.05
2023-03-19T00:51:12.607Z,40.58
2023-03-19T00:53:44.093Z,44.13
2023-03-19T00:56:14.972Z,42.72
2023-03-19T00:58:43.918Z,41.65
2023-03-19T01:01:15.772Z,40.63
2023-03-19T01:03:46.122Z,41.58
2023-03-19T01:06:15.354Z,41.10
2023-03-19T01:08:53.500Z,42.70
2023-03-19T01:11:22.615Z,41.65
2023-03-19T01:13:51.766Z,43.88
2023-03-19T01:16:20.724Z,42.60
2023-03-19T01:18:49.680Z,43.33
2023-03-19T01:21:18.894Z,41.55
2023-03-19T01:23:47.963Z,46.00
2023-03-19T01:26:17.019Z,41.88
2023-03-19T01:28:46.684Z,41.95
2023-03-19T01:31:15.713Z,44.47
2023-03-19T01:33:44.814Z,42.78
2023-03-19T01:36:14.204Z,50.45
2023-03-19T01:38:43.097Z,45.40
2023-03-19T01:41:12.049Z,45.33
2023-03-19T01:43:41.254Z,44.13
2023-03-19T01:46:17.536Z,44.22
2023-03-19T01:48:54.529Z,44.75
2023-03-19T01:51:27.989Z,44.53
2023-03-19T01:54:04.802Z,42.65
2023-03-19T01:56:40.083Z,41.13
2023-03-19T01:59:14.509Z,43.65
2023-03-19T02:01:59.139Z,43.28
2023-03-19T02:04:31.064Z,42.78
2023-03-19T02:07:02.399Z,41.17
2023-03-19T02:09:32.053Z,42.50
2023-03-19T02:12:02.971Z,43.15
2023-03-19T02:14:32.178Z,44.67
2023-03-19T02:17:01.653Z,43.63
2023-03-19T02:19:37.887Z,39.88
2023-03-19T02:22:07.819Z,41.50
2023-03-19T02:25:13.310Z,42.17
2023-03-19T02:27:43.479Z,44.38
2023-03-19T02:30:24.954Z,41.97
2023-03-19T02:32:53.938Z,42.60
2023-03-19T02:35:22.971Z,43.67
2023-03-19T02:37:52.320Z,41.60
2023-03-19T02:40:34.269Z,39.92
2023-03-19T02:43:03.234Z,40.05
2023-03-19T02:45:33.332Z,42.22
2023-03-19T02:48:02.578Z,38.70
2023-03-19T02:50:31.722Z,41.85
2023-03-19T02:53:00.915Z,40.28
2023-03-19T02:55:29.908Z,40.33
2023-03-19T02:57:58.837Z,39.90
2023-03-19T03:00:27.806Z,40.63
2023-03-19T03:02:58.823Z,40.42
2023-03-19T03:05:27.970Z,39.08
2023-03-19T03:07:57.110Z,39.72
2023-03-19T03:10:26.089Z,41.20
2023-03-19T03:12:54.999Z,41.78
2023-03-19T03:15:23.992Z,41.47
2023-03-19T03:17:53.180Z,39.97
2023-03-19T03:20:22.262Z,41.38
2023-03-19T03:22:51.155Z,44.10
2023-03-19T03:25:20.326Z,40.88
2023-03-19T03:27:49.414Z,40.28
2023-03-19T03:30:18.531Z,41.35
2023-03-19T03:32:47.963Z,40.83
2023-03-19T03:35:23.044Z,41.78
2023-03-19T03:37:53.269Z,39.75
2023-03-19T03:40:22.511Z,41.85
2023-03-19T03:42:51.938Z,39.75
2023-03-19T03:45:20.979Z,39.45
2023-03-19T03:47:49.973Z,39.38
2023-03-19T03:50:18.981Z,41.75
2023-03-19T03:52:49.049Z,39.83
2023-03-19T03:55:18.013Z,42.45
2023-03-19T03:57:46.956Z,42.00
2023-03-19T04:00:16.254Z,39.03
2023-03-19T04:02:45.251Z,39.97
2023-03-19T04:05:14.162Z,39.47
2023-03-19T04:07:43.832Z,38.47
2023-03-19T04:10:16.541Z,36.33
2023-03-19T04:12:47.003Z,39.40
2023-03-19T04:15:16.673Z,36.70
2023-03-19T04:17:46.494Z,37.83
2023-03-19T04:20:17.419Z,36.15
2023-03-19T04:22:46.925Z,38.25
2023-03-19T04:25:15.826Z,38.03
2023-03-19T04:27:44.738Z,38.67
2023-03-19T04:30:14.734Z,36.58
2023-03-19T04:32:45.452Z,35.55
2023-03-19T04:35:14.418Z,35.75
2023-03-19T04:37:49.541Z,32.60
2023-03-19T04:40:19.522Z,35.03
2023-03-19T04:42:48.404Z,33.97
2023-03-19T04:45:17.543Z,32.80
2023-03-19T04:47:46.465Z,34.17
2023-03-19T04:50:15.836Z,29.35
2023-03-19T04:52:45.043Z,31.23
2023-03-19T04:55:14.264Z,33.10
2023-03-19T04:57:43.203Z,33.30
2023-03-19T05:00:13.384Z,35.03
2023-03-19T05:02:44.005Z,33.28
2023-03-19T05:05:14.661Z,32.70
2023-03-19T05:07:43.713Z,33.88
2023-03-19T05:10:13.376Z,30.83
2023-03-19T05:12:42.652Z,28.42
2023-03-19T05:15:12.065Z,29.80
2023-03-19T05:17:40.982Z,29.25
2023-03-19T05:20:10.878Z,28.15
2023-03-19T05:22:40.045Z,28.50
2023-03-19T05:25:09.151Z,26.50
2023-03-19T05:27:38.351Z,27.67
2023-03-19T05:30:08.975Z,26.63
2023-03-19T05:32:38.647Z,24.48
2023-03-19T05:35:08.050Z,28.00
2023-03-19T05:37:37.640Z,28.15
2023-03-19T05:40:07.684Z,30.30
2023-03-19T05:42:36.609Z,29.10
2023-03-19T05:45:06.943Z,30.30
2023-03-19T05:47:36.261Z,29.85
2023-03-19T05:50:05.624Z,28.00
2023-03-19T05:52:34.534Z,28.70
2023-03-19T05:55:03.566Z,27.02
2023-03-19T05:57:32.795Z,27.80
2023-03-19T06:00:01.750Z,28.23
2023-03-19T06:02:30.725Z,27.92
2023-03-19T06:04:59.632Z,27.65
2023-03-19T06:07:28.650Z,28.35
2023-03-19T06:09:57.633Z,27.85
2023-03-19T06:12:30.485Z,29.17
2023-03-19T06:14:59.425Z,28.55
2023-03-19T06:17:28.351Z,28.00
2023-03-19T06:19:57.288Z,28.63
2023-03-19T06:22:26.536Z,27.65
2023-03-19T06:24:55.480Z,26.40
2023-03-19T06:27:24.428Z,26.08
2023-03-19T06:29:53.356Z,27.58
2023-03-19T06:32:22.319Z,28.20
2023-03-19T06:34:51.229Z,26.77
2023-03-19T06:37:20.274Z,24.70
2023-03-19T06:39:50.553Z,23.75
2023-03-19T06:42:19.480Z,24.30
2023-03-19T06:44:48.855Z,22.58
2023-03-19T06:47:17.976Z,24.85
2023-03-19T06:49:47.549Z,24.23
2023-03-19T06:52:16.705Z,22.38
2023-03-19T06:54:45.702Z,24.52
2023-03-19T06:57:14.626Z,23.27
2023-03-19T06:59:43.660Z,22.05
2023-03-19T07:02:15.552Z,22.25
2023-03-19T07:04:44.477Z,22.98
2023-03-19T07:07:13.465Z,21.63
2023-03-19T07:09:42.522Z,22.20
2023-03-19T07:12:11.902Z,23.67
2023-03-19T07:14:40.816Z,22.60
2023-03-19T07:17:10.456Z,21.85
2023-03-19T07:19:39.494Z,22.15
2023-03-19T07:22:08.748Z,21.80
2023-03-19T07:24:37.664Z,21.38
2023-03-19T07:27:06.881Z,20.42
2023-03-19T07:29:35.860Z,20.77
2023-03-19T07:32:05.005Z,22.05
2023-03-19T07:34:34.015Z,22.65
2023-03-19T07:37:03.497Z,21.75
2023-03-19T07:39:32.424Z,23.48
2023-03-19T07:42:01.369Z,25.75
2023-03-19T07:44:30.254Z,23.75
2023-03-19T07:46:59.204Z,24.88
2023-03-19T07:49:28.141Z,22.50
2023-03-19T07:51:57.306Z,30.70
2023-03-19T07:54:26.544Z,21.92
2023-03-19T07:56:55.466Z,23.20
2023-03-19T07:59:24.482Z,23.77
2023-03-19T08:01:53.423Z,23.83
2023-03-19T08:04:22.640Z,23.98
2023-03-19T08:06:51.823Z,24.52
2023-03-19T08:09:20.669Z,23.60
2023-03-19T08:11:49.600Z,23.58
2023-03-19T08:14:23.470Z,23.02
2023-03-19T08:16:52.482Z,23.15
2023-03-19T08:19:21.408Z,22.58
2023-03-19T08:21:50.474Z,23.08
2023-03-19T08:24:19.900Z,23.42
2023-03-19T08:26:49.128Z,22.90
2023-03-19T08:29:19.121Z,23.42
2023-03-19T08:31:48.190Z,23.20
2023-03-19T08:34:17.409Z,23.38
2023-03-19T08:36:46.511Z,22.88
2023-03-19T08:39:15.914Z,23.60
2023-03-19T08:41:44.912Z,22.58
2023-03-19T08:44:13.946Z,22.83
2023-03-19T08:46:43.704Z,22.58
2023-03-19T08:49:12.628Z,22.10
2023-03-19T08:51:41.680Z,22.05
2023-03-19T08:54:12.376Z,19.85
2023-03-19T08:56:42.105Z,23.00
2023-03-19T08:59:11.324Z,22.45
2023-03-19T09:01:40.262Z,22.00
2023-03-19T09:04:09.315Z,21.38
2023-03-19T09:06:38.218Z,21.85
2023-03-19T09:09:07.604Z,20.60
2023-03-19T09:11:36.693Z,20.75
2023-03-19T09:14:05.659Z,21.63
2023-03-19T09:16:34.717Z,20.02
2023-03-19T09:19:03.603Z,21.17
2023-03-19T09:21:32.716Z,20.52
2023-03-19T09:24:01.779Z,24.00
2023-03-19T09:26:30.705Z,22.75
2023-03-19T09:29:00.298Z,23.65
2023-03-19T09:31:29.993Z,23.00
2023-03-19T09:33:59.094Z,23.92
2023-03-19T09:36:28.092Z,22.15
2023-03-19T09:38:57.377Z,23.33
2023-03-19T09:41:53.359Z,23.83
2023-03-19T09:44:35.240Z,21.73
2023-03-19T09:47:14.905Z,23.73
2023-03-19T09:49:49.783Z,21.55
2023-03-19T09:52:51.530Z,23.73
2023-03-19T09:55:27.170Z,21.75
2023-03-19T09:57:58.058Z,22.05
2023-03-19T10:00:28.602Z,20.83
2023-03-19T10:03:02.694Z,21.90
2023-03-19T10:05:46.690Z,23.48
2023-03-19T10:08:33.911Z,23.95
2023-03-19T10:11:06.320Z,24.77
2023-03-19T10:13:57.059Z,25.70
2023-03-19T10:16:30.312Z,25.48
2023-03-19T10:21:40.764Z,27.20
2023-03-19T10:24:28.966Z,26.10
2023-03-19T10:27:06.479Z,27.35
2023-03-19T10:29:36.865Z,26.23
2023-03-19T10:32:23.711Z,26.27
2023-03-19T10:34:56.985Z,27.95
2023-03-19T10:40:03.093Z,28.50
2023-03-19T10:43:18.278Z,25.83
2023-03-19T10:45:47.723Z,25.65
2023-03-19T10:48:19.470Z,27.48
2023-03-19T10:51:05.858Z,28.13
2023-03-19T10:53:36.943Z,26.75
2023-03-19T10:56:24.143Z,27.55
2023-03-19T10:59:03.896Z,26.67
2023-03-19T11:01:39.652Z,26.58
2023-03-19T11:04:30.729Z,27.55
2023-03-19T11:07:10.205Z,27.88
2023-03-19T11:09:41.706Z,26.52
2023-03-19T11:12:24.197Z,26.13
2023-03-19T11:14:59.535Z,27.10
2023-03-19T11:17:31.017Z,27.38
2023-03-19T11:20:01.200Z,26.75
2023-03-19T11:22:36.833Z,27.58
2023-03-19T11:25:20.884Z,26.77
2023-03-19T11:28:10.190Z,27.13
2023-03-19T11:30:45.310Z,26.30
2023-03-19T11:33:42.980Z,29.30
2023-03-19T11:36:24.864Z,29.73
2023-03-19T11:39:06.191Z,31.40
2023-03-19T11:41:56.682Z,30.27
2023-03-19T11:44:48.899Z,31.92
2023-03-19T11:47:50.953Z,32.58
2023-03-19T11:50:40.602Z,30.60
2023-03-19T11:53:13.139Z,30.65
2023-03-19T11:56:15.533Z,33.03
2023-03-19T11:58:47.710Z,38.38
2023-03-19T12:01:32.643Z,36.78
2023-03-19T12:04:27.602Z,35.28
2023-03-19T12:07:02.382Z,38.25
2023-03-19T12:09:37.880Z,36.20
2023-03-19T12:12:34.158Z,37.03
2023-03-19T12:15:33.587Z,38.35
2023-03-19T12:18:40.499Z,36.40
2023-03-19T12:21:30.652Z,37.30
2023-03-19T12:24:13.154Z,34.67
2023-03-19T12:26:51.002Z,36.30
2023-03-19T12:29:25.993Z,35.10
2023-03-19T12:32:04.896Z,35.83
2023-03-19T12:34:50.627Z,33.85
2023-03-19T12:37:31.898Z,31.40
2023-03-19T12:40:21.947Z,32.47
2023-03-19T12:42:50.952Z,33.00
2023-03-19T12:45:38.129Z,31.35
2023-03-19T12:48:34.669Z,30.23
2023-03-19T12:51:10.560Z,30.95
2023-03-19T12:53:48.876Z,29.50
2023-03-19T12:56:34.424Z,30.40
2023-03-19T12:59:06.262Z,29.30
2023-03-19T13:02:14.003Z,31.38
2023-03-19T13:04:56.571Z,32.60
2023-03-19T13:08:09.875Z,30.40
2023-03-19T13:10:39.189Z,29.52
2023-03-19T13:13:19.692Z,29.88
2023-03-19T13:15:53.462Z,29.05
2023-03-19T13:19:06.621Z,34.38
2023-03-19T13:21:39.085Z,32.60
2023-03-19T13:24:35.751Z,34.13
2023-03-19T13:27:07.789Z,31.70
2023-03-19T13:29:40.420Z,32.78
2023-03-19T13:32:12.331Z,30.45
2023-03-19T13:34:41.877Z,29.00
2023-03-19T13:37:22.297Z,29.60
2023-03-19T13:39:51.604Z,32.33
2023-03-19T13:42:36.401Z,32.83
2023-03-19T13:45:38.629Z,30.83
2023-03-19T13:48:37.991Z,31.98
2023-03-19T13:51:24.770Z,33.17
2023-03-19T13:54:03.153Z,33.67
2023-03-19T13:56:54.491Z,30.90
2023-03-19T13:59:32.386Z,32.33
2023-03-19T14:02:03.142Z,30.45
2023-03-19T14:04:38.603Z,29.98
2023-03-19T14:07:19.111Z,28.75
2023-03-19T14:10:09.650Z,30.85
2023-03-19T14:12:40.351Z,29.55
2023-03-19T14:15:12.092Z,29.90
2023-03-19T14:18:00.001Z,29.50
2023-03-19T14:20:48.390Z,29.60
2023-03-19T14:23:36.166Z,30.20
2023-03-19T14:26:19.008Z,30.25
2023-03-19T14:29:05.653Z,29.73
2023-03-19T14:31:37.006Z,30.73
2023-03-19T14:34:23.197Z,29.38
2023-03-19T14:37:40.629Z,28.60
2023-03-19T14:40:25.942Z,29.05
2023-03-19T14:43:15.919Z,30.45
2023-03-19T14:46:06.801Z,30.38
2023-03-19T14:49:04.208Z,32.03
2023-03-19T14:51:58.815Z,30.90
2023-03-19T14:54:30.481Z,30.92
2023-03-19T14:56:59.845Z,30.85
2023-03-19T14:59:37.886Z,31.00
2023-03-19T15:02:18.735Z,31.13
2023-03-19T15:04:49.006Z,30.40
2023-03-19T15:07:27.132Z,29.92
2023-03-19T15:09:57.568Z,30.75
2023-03-19T15:12:34.741Z,30.45
2023-03-19T15:15:10.805Z,31.42
2023-03-19T15:17:40.072Z,31.85
2023-03-19T15:20:27.697Z,30.35
2023-03-19T15:22:59.108Z,29.58
2023-03-19T15:25:28.306Z,31.30
2023-03-19T15:28:10.423Z,32.60
2023-03-19T15:30:52.268Z,30.65
2023-03-19T15:33:39.436Z,29.05
2023-03-19T15:36:32.359Z,29.73
2023-03-19T15:39:13.189Z,30.17
2023-03-19T15:41:47.691Z,30.42
2023-03-19T15:44:25.191Z,31.60
2023-03-19T15:46:54.727Z,31.30
2023-03-19T15:49:27.186Z,30.30
2023-03-19T15:52:01.086Z,30.50
2023-03-19T15:54:30.557Z,29.58
2023-03-19T15:56:59.574Z,32.03
2023-03-19T15:59:34.251Z,30.92
2023-03-19T16:02:05.418Z,32.03
2023-03-19T16:04:55.866Z,33.20
2023-03-19T16:07:36.709Z,32.10
2023-03-19T16:10:44.650Z,31.98
2023-03-19T16:13:25.443Z,30.80
2023-03-19T16:16:12.333Z,30.77
2023-03-19T16:18:56.675Z,31.38
2023-03-19T16:21:37.420Z,31.25
2023-03-19T16:24:06.372Z,31.48
2023-03-19T16:26:42.225Z,30.65
2023-03-19T16:29:32.824Z,30.98
2023-03-19T16:32:04.685Z,32.13
2023-03-19T16:34:37.231Z,31.55
2023-03-19T16:37:34.982Z,30.52
2023-03-19T16:40:25.474Z,29.75
2023-03-19T16:42:57.237Z,32.33
2023-03-19T16:45:31.856Z,32.33
2023-03-19T16:48:04.892Z,32.30
2023-03-19T16:50:42.290Z,32.70
2023-03-19T16:53:33.246Z,32.25
2023-03-19T16:56:04.521Z,33.85
2023-03-19T16:58:44.902Z,33.05
2023-03-19T17:01:21.410Z,33.20
2023-03-19T17:03:51.373Z,31.77
2023-03-19T17:06:21.204Z,33.08
2023-03-19T17:08:50.335Z,32.35
2023-03-19T17:11:41.080Z,33.15
2023-03-19T17:14:19.685Z,32.47
2023-03-19T17:16:51.770Z,33.30
2023-03-19T17:19:24.059Z,32.88
2023-03-19T17:21:58.814Z,34.10
2023-03-19T17:24:35.085Z,35.13
2023-03-19T17:27:05.686Z,34.08
2023-03-19T17:29:35.043Z,32.42
2023-03-19T17:32:05.364Z,34.40
2023-03-19T17:34:34.379Z,35.47
2023-03-19T17:37:05.335Z,34.25
2023-03-19T17:39:35.254Z,34.92
2023-03-19T17:42:04.114Z,33.22
2023-03-19T17:44:33.026Z,33.83
2023-03-19T17:47:02.032Z,32.13
2023-03-19T17:49:33.883Z,33.65
2023-03-19T17:52:03.032Z,34.38
2023-03-19T17:54:32.031Z,35.80
2023-03-19T17:57:00.970Z,32.28
2023-03-19T17:59:30.210Z,31.38
2023-03-19T18:01:59.174Z,31.75
2023-03-19T18:04:28.150Z,31.83
2023-03-19T18:06:58.179Z,35.47
2023-03-19T18:09:33.886Z,36.95
2023-03-19T18:12:02.839Z,33.15
2023-03-19T18:14:31.998Z,31.45
2023-03-19T18:17:00.978Z,31.60
2023-03-19T18:19:34.196Z,32.50
2023-03-19T18:22:03.080Z,32.93
2023-03-19T18:24:31.952Z,32.28
2023-03-19T18:27:00.906Z,33.03
2023-03-19T18:29:29.784Z,33.20
2023-03-19T18:32:04.499Z,32.80
2023-03-19T18:34:33.909Z,31.60
2023-03-19T18:37:03.855Z,32.95
2023-03-19T18:39:37.457Z,31.13
2023-03-19T18:42:06.605Z,31.58
2023-03-19T18:44:35.754Z,30.73
2023-03-19T18:47:04.965Z,31.75
2023-03-19T18:49:34.181Z,31.33
2023-03-19T18:52:03.878Z,30.85
2023-03-19T18:54:33.503Z,32.20
2023-03-19T18:57:03.538Z,32.55
2023-03-19T18:59:34.786Z,30.70
2023-03-19T19:02:20.781Z,31.17
2023-03-19T19:04:49.887Z,30.52
2023-03-19T19:07:18.830Z,31.73
2023-03-19T19:09:47.749Z,32.95
2023-03-19T19:12:18.964Z,32.92
2023-03-19T19:14:48.308Z,33.00
2023-03-19T19:17:25.174Z,31.80
2023-03-19T19:19:54.223Z,31.85
2023-03-19T19:22:23.197Z,32.15
2023-03-19T19:24:52.224Z,32.95
2023-03-19T19:27:27.386Z,30.73
2023-03-19T19:29:56.777Z,30.65
2023-03-19T19:32:31.903Z,31.88
2023-03-19T19:35:00.907Z,31.05
2023-03-19T19:37:29.813Z,30.92
2023-03-19T19:39:59.291Z,29.90
2023-03-19T19:42:30.686Z,29.42
2023-03-19T19:45:00.000Z,32.40
2023-03-19T19:47:29.617Z,32.28
2023-03-19T19:49:59.234Z,31.25
2023-03-19T19:52:28.404Z,30.02
2023-03-19T19:54:57.296Z,30.02
2023-03-19T19:57:26.432Z,28.80
2023-03-19T19:59:56.729Z,29.33
2023-03-19T20:02:29.815Z,29.30
2023-03-19T20:04:59.699Z,29.00
2023-03-19T20:07:28.648Z,26.92
2023-03-19T20:09:57.650Z,26.63
2023-03-19T20:12:32.977Z,28.00
2023-03-19T20:15:02.568Z,28.85
2023-03-19T20:17:31.866Z,27.38
2023-03-19T20:20:00.762Z,28.33
2023-03-19T20:22:29.759Z,28.50
2023-03-19T20:24:59.126Z,26.20
2023-03-19T20:27:33.833Z,27.45
2023-03-19T20:30:03.243Z,27.38
2023-03-19T20:32:39.892Z,27.95
2023-03-19T20:35:20.463Z,29.02
2023-03-19T20:37:49.625Z,27.95
2023-03-19T20:40:19.578Z,29.25
2023-03-19T20:42:51.196Z,29.17
2023-03-19T20:45:23.041Z,29.80
2023-03-19T20:47:54.008Z,27.08
2023-03-19T20:50:26.069Z,28.33
2023-03-19T20:52:56.468Z,27.20
2023-03-19T20:55:29.411Z,27.27
2023-03-19T20:57:58.813Z,27.35
2023-03-19T21:00:33.265Z,27.52
2023-03-19T21:03:03.559Z,28.23
2023-03-19T21:05:37.538Z,26.58
2023-03-19T21:10:44.884Z,28.17
2023-03-19T21:13:19.332Z,27.98
2023-03-19T21:15:51.931Z,25.77
2023-03-19T21:18:21.057Z,26.10
2023-03-19T21:20:55.634Z,26.52
2023-03-19T21:23:32.807Z,26.13
2023-03-19T21:26:08.706Z,26.15
2023-03-19T21:28:39.511Z,26.38
2023-03-19T21:31:12.012Z,26.38
2023-03-19T21:33:41.298Z,25.73
2023-03-19T21:36:11.469Z,25.45
2023-03-19T21:38:40.407Z,25.55
2023-03-19T21:41:19.163Z,24.63
2023-03-19T21:43:53.538Z,25.75
2023-03-19T21:46:28.554Z,25.38
2023-03-19T21:48:58.948Z,24.98
2023-03-19T21:51:29.796Z,27.85
2023-03-19T21:53:59.528Z,27.30
2023-03-19T21:56:34.406Z,28.77
2023-03-19T21:59:14.999Z,29.23
2023-03-19T22:01:44.384Z,27.30
2023-03-19T22:04:13.551Z,26.33
2023-03-19T22:06:44.037Z,28.83
2023-03-19T22:09:13.012Z,28.17
2023-03-19T22:11:47.113Z,29.23
2023-03-19T22:14:20.365Z,28.38
2023-03-19T22:16:53.123Z,27.50
2023-03-19T22:19:23.439Z,29.60
2023-03-19T22:21:52.372Z,29.40
2023-03-19T22:24:21.520Z,28.90
2023-03-19T22:26:57.601Z,28.15
2023-03-19T22:29:27.424Z,26.10
2023-03-19T22:31:58.008Z,28.13
2023-03-19T22:34:29.183Z,31.23
2023-03-19T22:36:58.678Z,30.02
2023-03-19T22:39:27.670Z,27.90
2023-03-19T22:41:56.864Z,29.05
2023-03-19T22:44:32.608Z,26.55
2023-03-19T22:47:03.187Z,28.88
2023-03-19T22:49:32.635Z,29.15
2023-03-19T22:52:01.793Z,29.30
2023-03-19T22:54:30.691Z,27.63
2023-03-19T22:56:59.581Z,28.23
2023-03-19T22:59:29.122Z,27.30
2023-03-19T23:01:59.520Z,27.88
2023-03-19T23:04:31.802Z,27.20
2023-03-19T23:07:02.396Z,28.33
2023-03-19T23:09:33.964Z,27.90
2023-03-19T23:12:04.385Z,27.35
2023-03-19T23:14:33.849Z,29.80
2023-03-19T23:17:07.580Z,26.45
2023-03-19T23:19:39.448Z,26.42
2023-03-19T23:22:13.472Z,27.05
2023-03-19T23:27:27.115Z,30.92
2023-03-19T23:29:56.254Z,31.58
2023-03-19T23:32:25.187Z,27.88
2023-03-19T23:35:00.460Z,32.70
2023-03-19T23:37:30.230Z,40.25
2023-03-19T23:39:59.159Z,33.65
2023-03-19T23:42:32.548Z,35.25
2023-03-19T23:45:04.726Z,33.63
2023-03-19T23:47:34.021Z,33.53
2023-03-19T23:50:02.927Z,33.78
2023-03-19T23:52:31.841Z,33.22
2023-03-19T23:55:00.933Z,34.75
2023-03-19T23:57:29.894Z,35.00
2023-03-19T23:59:59.432Z,42.88
